Time;durP1;ratioP1;P1;durP2;ratioP2;P2;SDS_P1;SDS_P2;PMS_P1;PMS_P2;Temp;Humidity;BMP_temperature;BMP_pressure;BME280_temperature;BME280_humidity;BME280_pressure;Samples;Min_cycle;Max_cycle;Signal;HPM_P1;HPM_P2
2024/03/13 00:00:36;;;;;;;0.32;0.20;;;;;;;4.92;100.00;92905.66;2106419;28;20028;-83
2024/03/13 00:01:37;;;;;;;0.20;0.20;;;;;;;4.92;100.00;92897.72;2118102;27;20071;-83
2024/03/13 00:02:38;;;;;;;0.98;0.20;;;;;;;4.94;100.00;92899.97;2123285;27;20723;-83
2024/03/13 00:03:39;;;;;;;0.20;0.20;;;;;;;5.09;100.00;92898.75;2106491;28;20440;-82
2024/03/13 00:04:45;;;;;;;0.22;0.20;;;;;;;5.13;100.00;92896.84;2098199;28;20028;-83
2024/03/13 00:05:47;;;;;;;0.25;0.20;;;;;;;5.13;100.00;92896.09;2108184;27;20032;-83
2024/03/13 00:06:50;;;;;;;0.32;0.20;;;;;;;5.02;100.00;92899.56;2113316;28;20016;-83
2024/03/13 00:07:51;;;;;;;0.32;0.20;;;;;;;4.86;100.00;92896.59;2106741;28;20115;-83
2024/03/13 00:08:53;;;;;;;0.20;0.20;;;;;;;4.75;100.00;92901.19;2098306;28;20032;-83
2024/03/13 00:09:54;;;;;;;0.30;0.20;;;;;;;4.77;100.00;92890.94;2110049;27;20043;-83
2024/03/13 00:10:55;;;;;;;0.22;0.20;;;;;;;4.68;100.00;92891.34;2114899;28;20027;-83
2024/03/13 00:11:55;;;;;;;0.20;0.20;;;;;;;5.06;100.00;92888.94;2115006;28;20530;-82
2024/03/13 00:12:56;;;;;;;0.20;0.20;;;;;;;4.91;100.00;92892.78;2112665;28;20027;-82
2024/03/13 00:13:57;;;;;;;0.20;0.20;;;;;;;5.17;100.00;92886.22;2098213;28;20385;-82
2024/03/13 00:14:58;;;;;;;0.20;0.20;;;;;;;5.06;100.00;92883.66;2098178;28;20040;-83
2024/03/13 00:15:59;;;;;;;0.20;0.20;;;;;;;4.89;100.00;92887.13;2098023;28;20028;-83
2024/03/13 00:17:00;;;;;;;0.20;0.20;;;;;;;4.95;100.00;92888.97;2104970;28;20032;-84
2024/03/13 00:18:01;;;;;;;0.10;0.10;;;;;;;4.77;100.00;92883.00;2098127;28;20476;-81
2024/03/13 00:19:03;;;;;;;0.13;0.13;;;;;;;4.82;100.00;92889.78;2106714;28;20383;-82
2024/03/13 00:20:04;;;;;;;0.10;0.10;;;;;;;4.85;100.00;92884.50;2098185;28;20048;-83
2024/03/13 00:21:05;;;;;;;0.13;0.13;;;;;;;4.83;100.00;92886.00;2098091;28;20112;-82
2024/03/13 00:22:06;;;;;;;0.10;0.10;;;;;;;4.92;100.00;92884.47;2098101;28;20017;-83
2024/03/13 00:23:09;;;;;;;0.15;0.15;;;;;;;4.66;100.00;92883.06;2098344;28;20113;-83
2024/03/13 00:24:10;;;;;;;0.20;0.20;;;;;;;4.85;100.00;92881.09;2114831;27;20422;-82
2024/03/13 00:25:11;;;;;;;0.20;0.20;;;;;;;4.80;100.00;92888.28;2106597;28;20032;-83
2024/03/13 00:26:12;;;;;;;0.20;0.20;;;;;;;4.82;100.00;92884.50;2105658;28;20487;-84
2024/03/13 00:27:15;;;;;;;0.20;0.20;;;;;;;4.76;100.00;92876.97;2102694;28;20052;-83
2024/03/13 00:28:16;;;;;;;0.20;0.20;;;;;;;4.88;100.00;92877.69;2106211;28;20024;-82
2024/03/13 00:29:17;;;;;;;0.20;0.20;;;;;;;5.04;100.00;92875.31;2104912;28;20414;-83
2024/03/13 00:30:18;;;;;;;0.20;0.20;;;;;;;4.94;100.00;92878.78;2110628;28;20024;-84
2024/03/13 00:31:19;;;;;;;0.20;0.20;;;;;;;5.02;100.00;92873.06;2106312;28;20024;-83
2024/03/13 00:32:23;;;;;;;0.20;0.20;;;;;;;4.88;100.00;92867.84;2102167;28;20031;-83
2024/03/13 00:33:25;;;;;;;0.20;0.20;;;;;;;4.96;100.00;92866.69;2104841;28;20469;-83
2024/03/13 00:34:26;;;;;;;0.10;0.10;;;;;;;4.92;100.00;92878.41;2107625;28;20024;-84
2024/03/13 00:35:27;;;;;;;0.15;0.15;;;;;;;4.77;100.00;92867.13;2106464;28;20024;-84
2024/03/13 00:36:28;;;;;;;0.20;0.20;;;;;;;4.80;100.00;92866.34;2089847;28;20079;-83
2024/03/13 00:37:29;;;;;;;0.20;0.20;;;;;;;4.85;100.00;92860.66;2092200;28;20036;-83
2024/03/13 00:38:30;;;;;;;0.20;0.20;;;;;;;4.88;100.00;92856.50;2114913;28;20077;-84
2024/03/13 00:39:31;;;;;;;0.20;0.20;;;;;;;4.89;100.00;92860.66;2114513;28;20027;-84
2024/03/13 00:40:40;;;;;;;0.17;0.17;;;;;;;4.94;100.00;92854.94;2106618;28;20539;-83
2024/03/13 00:41:41;;;;;;;0.20;0.20;;;;;;;4.94;100.00;92862.88;2107923;28;20035;-83
2024/03/13 00:42:43;;;;;;;0.20;0.20;;;;;;;5.02;100.00;92854.53;2106267;28;20085;-83
2024/03/13 00:43:44;;;;;;;0.20;0.20;;;;;;;5.05;100.00;92850.34;2106505;28;20031;-84
2024/03/13 00:44:45;;;;;;;0.38;0.38;;;;;;;4.95;100.00;92846.59;2102507;28;20115;-83
2024/03/13 00:45:48;;;;;;;0.20;0.20;;;;;;;5.00;100.00;92848.09;2114720;28;20055;-85
2024/03/13 00:46:49;;;;;;;0.20;0.20;;;;;;;5.04;100.00;92852.22;2115050;27;20031;-83
2024/03/13 00:47:50;;;;;;;0.70;0.20;;;;;;;5.13;100.00;92845.75;2106222;28;20027;-83
2024/03/13 00:48:51;;;;;;;0.20;0.20;;;;;;;5.00;100.00;92840.16;2098159;28;20058;-85
2024/03/13 00:49:52;;;;;;;0.20;0.20;;;;;;;5.02;100.00;92845.81;2114486;28;20102;-82
2024/03/13 00:50:53;;;;;;;0.20;0.20;;;;;;;5.03;100.00;92840.13;2114683;28;20502;-84
2024/03/13 00:51:54;;;;;;;0.20;0.20;;;;;;;5.01;100.00;92836.38;2097935;28;20021;-83
2024/03/13 00:52:56;;;;;;;0.20;0.20;;;;;;;5.02;100.00;92841.28;2097928;28;20112;-83
2024/03/13 00:53:57;;;;;;;0.32;0.20;;;;;;;4.98;100.00;92839.78;2098155;28;20031;-84
2024/03/13 00:54:58;;;;;;;0.20;0.20;;;;;;;5.05;100.00;92839.75;2114475;28;20024;-82
2024/03/13 00:55:59;;;;;;;0.35;0.20;;;;;;;4.97;100.00;92828.44;2114720;27;20054;-83
2024/03/13 00:57:01;;;;;;;0.10;0.10;;;;;;;5.14;100.00;92834.03;2109246;28;20098;-84
2024/03/13 00:58:03;;;;;;;0.20;0.20;;;;;;;5.15;100.00;92825.69;2106382;28;20031;-82
2024/03/13 00:59:05;;;;;;;0.20;0.20;;;;;;;5.10;100.00;92826.09;2101736;28;20031;-83
2024/03/13 01:00:09;;;;;;;0.10;0.10;;;;;;;5.09;100.00;92829.13;2103226;28;20441;-82
2024/03/13 01:01:11;;;;;;;0.20;0.20;;;;;;;5.28;100.00;92820.69;2089652;28;20493;-82
2024/03/13 01:02:13;;;;;;;0.20;0.20;;;;;;;5.09;100.00;92826.47;2093546;28;20033;-82
2024/03/13 01:03:14;;;;;;;0.20;0.20;;;;;;;5.08;100.00;92831.03;2105502;28;20027;-81
2024/03/13 01:04:16;;;;;;;0.20;0.20;;;;;;;5.09;100.00;92824.56;2106038;28;20495;-83
2024/03/13 01:05:18;;;;;;;0.32;0.20;;;;;;;5.04;100.00;92817.78;2106345;28;20357;-83
2024/03/13 01:06:19;;;;;;;0.25;0.20;;;;;;;5.03;100.00;92820.84;2098026;28;20028;-83
2024/03/13 01:07:22;;;;;;;0.20;0.20;;;;;;;5.07;100.00;92818.94;2105265;28;20039;-82
2024/03/13 01:08:24;;;;;;;0.20;0.20;;;;;;;5.11;100.00;92810.97;2114488;28;20073;-82
2024/03/13 01:09:26;;;;;;;0.32;0.20;;;;;;;5.23;100.00;92815.81;2098247;28;20389;-83
2024/03/13 01:10:27;;;;;;;0.20;0.20;;;;;;;5.32;100.00;92815.38;2106484;28;20032;-83
2024/03/13 01:11:29;;;;;;;0.20;0.20;;;;;;;5.21;100.00;92815.44;2106067;28;20111;-83
2024/03/13 01:12:34;;;;;;;0.20;0.20;;;;;;;5.23;100.00;92803.31;2098932;28;20020;-83
2024/03/13 01:13:35;;;;;;;0.20;0.20;;;;;;;5.16;100.00;92805.25;2098612;28;20024;-81
2024/03/13 01:14:38;;;;;;;0.20;0.20;;;;;;;5.17;100.00;92806.75;2114317;28;20027;-82
2024/03/13 01:15:39;;;;;;;0.20;0.20;;;;;;;5.28;100.00;92810.84;2122995;27;20121;-83
2024/03/13 01:16:41;;;;;;;0.17;0.17;;;;;;;5.22;100.00;92808.97;2114559;28;20064;-83
2024/03/13 01:17:42;;;;;;;0.10;0.10;;;;;;;5.25;100.00;92805.56;2114476;28;20023;-85
2024/03/13 01:18:43;;;;;;;0.10;0.10;;;;;;;5.26;100.00;92799.13;2114505;28;20027;-83
2024/03/13 01:19:44;;;;;;;1.00;0.20;;;;;;;5.07;100.00;92800.38;2097775;28;20028;-83
2024/03/13 01:20:48;;;;;;;0.47;0.20;;;;;;;5.09;100.00;92794.69;2097770;28;20676;-84
2024/03/13 01:21:54;;;;;;;0.20;0.20;;;;;;;5.12;100.00;92791.28;2106889;27;20024;-84
2024/03/13 01:22:56;;;;;;;0.20;0.20;;;;;;;5.49;100.00;92798.59;2106914;28;20061;-84
2024/03/13 01:23:57;;;;;;;0.20;0.20;;;;;;;5.36;100.00;92789.59;2106359;28;20468;-83
2024/03/13 01:24:58;;;;;;;0.22;0.20;;;;;;;5.23;100.00;92792.72;2106227;28;20031;-84
2024/03/13 01:26:04;;;;;;;0.20;0.20;;;;;;;5.19;100.00;92788.59;2112059;28;20069;-84
2024/03/13 01:27:05;;;;;;;0.13;0.13;;;;;;;5.51;100.00;92791.00;2104557;28;20036;-83
2024/03/13 01:28:06;;;;;;;0.38;0.20;;;;;;;5.44;100.00;92791.03;2096645;28;20039;-84
2024/03/13 01:29:08;;;;;;;0.10;0.10;;;;;;;5.28;100.00;92780.94;2089348;28;20066;-81
2024/03/13 01:30:10;;;;;;;0.17;0.17;;;;;;;5.31;100.00;92782.81;2097422;28;20073;-84
2024/03/13 01:31:10;;;;;;;0.13;0.13;;;;;;;5.41;100.00;92776.69;2084894;28;20033;-82
2024/03/13 01:32:14;;;;;;;0.20;0.20;;;;;;;5.42;100.00;92778.19;2087550;28;20075;-83
2024/03/13 01:33:15;;;;;;;0.20;0.17;;;;;;;5.39;100.00;92771.00;2089625;28;20565;-84
2024/03/13 01:34:16;;;;;;;0.63;0.20;;;;;;;5.46;100.00;92778.91;2089251;28;20024;-83
2024/03/13 01:35:19;;;;;;;0.20;0.20;;;;;;;5.48;100.00;92775.84;2089149;28;20374;-83
2024/03/13 01:37:55;;;;;;;0.15;0.15;;;;;;;5.57;100.00;92773.50;2089867;28;20410;-84
2024/03/13 01:37:57;;;;;;;0.80;0.20;;;;;;;5.54;100.00;92774.31;2100430;28;20118;-83
2024/03/13 01:38:58;;;;;;;0.20;0.20;;;;;;;5.53;100.00;92775.44;2091478;28;20474;-84
2024/03/13 01:40:04;;;;;;;0.20;0.20;;;;;;;5.53;100.00;92765.59;2097270;28;20082;-83
2024/03/13 01:55:25;;;;;;;0.20;0.20;;;;;;;5.95;100.00;92766.38;2106676;28;19951;-83
2024/03/13 01:56:26;;;;;;;0.10;0.10;;;;;;;5.88;100.00;92765.66;2108898;28;20515;-83
2024/03/13 01:57:45;;;;;;;0.20;0.20;;;;;;;5.93;100.00;92771.34;2110436;28;20023;-83
2024/03/13 01:58:51;;;;;;;0.20;0.20;;;;;;;5.95;100.00;92768.28;2102141;28;20436;-83
2024/03/13 02:02:32;;;;;;;0.20;0.20;;;;;;;5.96;100.00;92765.22;2106632;28;20028;-84
2024/03/13 02:03:34;;;;;;;0.10;0.10;;;;;;;5.95;100.00;92771.69;2091131;28;20427;-84
2024/03/13 02:04:36;;;;;;;0.20;0.20;;;;;;;6.00;100.00;92768.59;2091261;28;20067;-84
2024/03/13 02:05:42;;;;;;;0.38;0.20;;;;;;;6.05;100.00;92760.19;2097499;28;20048;-83
2024/03/13 02:07:18;;;;;;;0.20;0.20;;;;;;;6.01;100.00;92779.94;2098485;28;20047;-85
2024/03/13 02:08:20;;;;;;;0.20;0.20;;;;;;;6.01;100.00;92777.31;2101990;28;20111;-84
2024/03/13 02:09:23;;;;;;;0.20;0.20;;;;;;;6.03;100.00;92777.69;2089453;28;20032;-83
2024/03/13 02:10:24;;;;;;;0.10;0.10;;;;;;;5.95;100.00;92779.63;2089636;28;20135;-84
2024/03/13 02:11:25;;;;;;;0.10;0.10;;;;;;;6.13;100.00;92770.75;2097367;28;20020;-83
2024/03/13 02:12:27;;;;;;;0.20;0.20;;;;;;;6.25;100.00;92770.25;2105708;28;20409;-83
2024/03/13 02:13:28;;;;;;;0.20;0.20;;;;;;;6.23;100.00;92781.25;2099353;28;20217;-83
2024/03/13 02:14:28;;;;;;;0.15;0.15;;;;;;;6.28;100.00;92780.06;2089015;28;20063;-84
2024/03/13 02:15:29;;;;;;;0.20;0.20;;;;;;;6.23;100.00;92781.25;2080641;28;20025;-83
2024/03/13 02:16:31;;;;;;;0.17;0.17;;;;;;;6.26;100.00;92780.44;2089118;28;20040;-83
2024/03/13 02:17:37;;;;;;;0.20;0.20;;;;;;;6.42;100.00;92779.16;2097315;28;20453;-83
2024/03/13 02:18:38;;;;;;;0.10;0.10;;;;;;;6.54;100.00;92770.66;2104672;28;20040;-84
2024/03/13 02:19:40;;;;;;;0.30;0.20;;;;;;;6.49;100.00;92776.41;2097522;28;20028;-83
2024/03/13 02:20:41;;;;;;;0.40;0.40;;;;;;;6.50;100.00;92770.72;2105482;28;20024;-83
2024/03/13 02:21:42;;;;;;;0.20;0.20;;;;;;;6.41;100.00;92774.97;2105504;28;20480;-83
2024/03/13 02:22:43;;;;;;;0.10;0.10;;;;;;;6.39;100.00;92774.63;2105785;28;20028;-83
2024/03/13 02:23:44;;;;;;;0.10;0.10;;;;;;;6.32;100.00;92770.16;2105813;28;20016;-84
2024/03/13 02:24:45;;;;;;;0.10;0.10;;;;;;;6.41;100.00;92774.97;2097338;28;20025;-84
2024/03/13 02:25:46;;;;;;;0.10;0.10;;;;;;;6.59;100.00;92770.22;2088208;28;20477;-85
2024/03/13 02:26:47;;;;;;;0.10;0.10;;;;;;;6.51;100.00;92764.25;2098396;28;20051;-84
2024/03/13 02:27:52;;;;;;;0.10;0.10;;;;;;;6.37;100.00;92764.41;2112061;28;20103;-82
2024/03/13 02:28:53;;;;;;;0.10;0.10;;;;;;;6.54;100.00;92775.97;2106152;28;20024;-83
2024/03/13 02:29:54;;;;;;;0.10;0.10;;;;;;;6.42;100.00;92768.53;2089115;28;20029;-83
2024/03/13 02:30:55;;;;;;;0.10;0.10;;;;;;;6.48;100.00;92770.34;2101822;28;20464;-83
2024/03/13 02:31:56;;;;;;;0.10;0.10;;;;;;;6.42;100.00;92769.28;2105480;28;20020;-83
2024/03/13 02:32:57;;;;;;;0.20;0.20;;;;;;;6.65;100.00;92765.22;2103719;28;20028;-83
2024/03/13 02:33:57;;;;;;;0.10;0.10;;;;;;;6.73;100.00;92769.28;2111762;28;20055;-83
2024/03/13 02:34:58;;;;;;;0.10;0.10;;;;;;;6.69;100.00;92757.97;2122474;28;20091;-84
2024/03/13 02:36:01;;;;;;;0.10;0.10;;;;;;;6.80;100.00;92754.03;2113805;28;20027;-84
2024/03/13 02:37:02;;;;;;;0.20;0.20;;;;;;;6.90;100.00;92751.63;2097473;28;20087;-84
2024/03/13 02:38:03;;;;;;;0.10;0.10;;;;;;;6.86;100.00;92762.28;2097297;28;20078;-82
2024/03/13 02:39:04;;;;;;;0.20;0.20;;;;;;;6.84;100.00;92758.53;2088925;28;20045;-82
2024/03/13 02:40:10;;;;;;;0.10;0.10;;;;;;;6.86;100.00;92756.22;2098033;28;20021;-84
2024/03/13 02:41:11;;;;;;;0.10;0.10;;;;;;;6.76;100.00;92758.63;2097374;28;20048;-82
2024/03/13 02:42:12;;;;;;;0.10;0.10;;;;;;;6.80;100.00;92758.56;2097100;28;20028;-83
2024/03/13 02:43:13;;;;;;;0.10;0.10;;;;;;;6.62;100.00;92760.69;2089054;28;20025;-82
2024/03/13 02:44:14;;;;;;;0.80;0.20;;;;;;;6.54;100.00;92754.72;2105626;28;20016;-83
2024/03/13 02:45:18;;;;;;;0.20;0.10;;;;;;;6.64;100.00;92763.72;2113985;28;20023;-82
2024/03/13 02:46:19;;;;;;;0.15;0.15;;;;;;;6.52;100.00;92757.03;2113892;28;20028;-83
2024/03/13 02:47:20;;;;;;;0.20;0.20;;;;;;;6.53;100.00;92753.97;2105383;28;20032;-84
2024/03/13 02:48:20;;;;;;;0.20;0.20;;;;;;;6.48;100.00;92765.03;2111001;28;20096;-84
2024/03/13 02:49:21;;;;;;;0.10;0.10;;;;;;;6.65;100.00;92758.00;2122475;28;20072;-83
2024/03/13 02:50:22;;;;;;;0.10;0.10;;;;;;;6.68;100.00;92762.53;2113976;28;20023;-83
2024/03/13 02:51:24;;;;;;;0.15;0.15;;;;;;;6.66;100.00;92761.41;2097148;28;20025;-83
2024/03/13 02:52:25;;;;;;;0.10;0.10;;;;;;;6.70;100.00;92762.88;2094727;28;20118;-83
2024/03/13 02:53:27;;;;;;;0.20;0.20;;;;;;;6.92;100.00;92765.25;2097276;28;20017;-84
2024/03/13 02:54:28;;;;;;;0.20;0.20;;;;;;;6.80;100.00;92761.22;2089096;28;20080;-84
2024/03/13 02:55:28;;;;;;;0.20;0.20;;;;;;;6.69;100.00;92756.06;2090342;28;20032;-83
2024/03/13 02:56:30;;;;;;;0.20;0.20;;;;;;;6.67;100.00;92763.69;2097237;28;20472;-83
2024/03/13 02:57:31;;;;;;;0.20;0.20;;;;;;;6.64;100.00;92769.03;2094572;28;20036;-83
2024/03/13 02:58:32;;;;;;;0.10;0.10;;;;;;;6.65;100.00;92770.53;2089638;28;20418;-84
2024/03/13 02:59:34;;;;;;;0.10;0.10;;;;;;;6.63;100.00;92767.50;2101428;28;20039;-82
2024/03/13 03:00:35;;;;;;;0.28;0.10;;;;;;;6.59;100.00;92764.16;2111578;28;20031;-84
2024/03/13 03:01:36;;;;;;;0.17;0.17;;;;;;;6.78;100.00;92758.22;2105007;28;20024;-82
2024/03/13 03:02:38;;;;;;;0.20;0.10;;;;;;;6.93;100.00;92762.19;2115499;28;20023;-83
2024/03/13 03:03:39;;;;;;;0.20;0.20;;;;;;;7.03;100.00;92757.88;2106274;28;20540;-84
2024/03/13 03:04:42;;;;;;;1.38;0.20;;;;;;;7.00;100.00;92762.09;1944165;28;22554;-82
2024/03/13 03:05:43;;;;;;;0.10;0.10;;;;;;;6.96;100.00;92768.59;2043189;28;20039;-82
2024/03/13 03:06:47;;;;;;;0.20;0.20;;;;;;;6.95;100.00;92759.13;1991190;28;20094;-83
2024/03/13 03:07:48;;;;;;;0.13;0.13;;;;;;;7.07;100.00;92756.69;2001909;28;20031;-82
2024/03/13 03:08:49;;;;;;;0.70;0.20;;;;;;;7.07;100.00;92753.28;2035164;28;21973;-84
2024/03/13 03:09:50;;;;;;;0.20;0.20;;;;;;;7.06;100.00;92760.47;1993549;28;22003;-83
2024/03/13 03:10:51;;;;;;;0.20;0.20;;;;;;;7.07;100.00;92771.88;2069580;28;20035;-81
2024/03/13 03:11:52;;;;;;;0.10;0.10;;;;;;;6.97;100.00;92765.53;2072222;28;20069;-82
2024/03/13 03:12:53;;;;;;;0.10;0.10;;;;;;;6.92;100.00;92762.59;2091929;28;21738;-82
2024/03/13 03:13:54;;;;;;;0.20;0.20;;;;;;;6.99;100.00;92776.53;2113455;28;20023;-82
2024/03/13 03:14:55;;;;;;;0.10;0.10;;;;;;;7.13;100.00;92770.25;2113613;28;20051;-82
2024/03/13 03:15:56;;;;;;;0.20;0.20;;;;;;;6.98;100.00;92767.06;2105183;28;20028;-83
2024/03/13 03:16:57;;;;;;;0.20;0.20;;;;;;;7.07;100.00;92767.31;2113037;28;20031;-83
2024/03/13 03:17:58;;;;;;;0.20;0.20;;;;;;;7.06;100.00;92771.09;2110286;28;20088;-83
2024/03/13 03:18:59;;;;;;;0.10;0.10;;;;;;;7.06;100.00;92765.03;2100758;28;20333;-83
2024/03/13 03:20:00;;;;;;;0.17;0.17;;;;;;;7.09;100.00;92772.22;2083824;28;20025;-83
2024/03/13 03:21:02;;;;;;;0.20;0.20;;;;;;;7.09;100.00;92766.16;2088355;28;20043;-83
2024/03/13 03:22:03;;;;;;;0.17;0.17;;;;;;;6.99;100.00;92773.13;2094181;28;20019;-82
2024/03/13 03:23:04;;;;;;;0.10;0.10;;;;;;;7.03;100.00;92765.84;2094279;28;20052;-84
2024/03/13 03:24:05;;;;;;;0.10;0.10;;;;;;;6.99;100.00;92779.19;2072234;28;20054;-82
2024/03/13 03:25:07;;;;;;;0.10;0.10;;;;;;;7.25;100.00;92779.59;2068305;28;20032;-83
2024/03/13 03:26:09;;;;;;;0.10;0.10;;;;;;;6.95;100.00;92772.41;2095487;28;20024;-85
2024/03/13 03:27:13;;;;;;;0.13;0.10;;;;;;;6.97;100.00;92773.50;2031480;28;22287;-83
2024/03/13 03:28:16;;;;;;;0.10;0.10;;;;;;;7.05;100.00;92780.22;2088848;28;20024;-85
2024/03/13 03:29:17;;;;;;;0.20;0.20;;;;;;;7.02;100.00;92775.75;1983849;28;20066;-82
2024/03/13 03:30:18;;;;;;;0.20;0.20;;;;;;;7.07;100.00;92779.84;1946785;28;20062;-83
2024/03/13 03:31:21;;;;;;;0.10;0.10;;;;;;;7.09;100.00;92779.44;2001058;28;20031;-83
2024/03/13 03:32:22;;;;;;;0.20;0.20;;;;;;;7.08;100.00;92778.69;1924723;28;20031;-85
2024/03/13 03:33:23;;;;;;;1.48;0.20;;;;;;;7.07;100.00;92774.53;1841061;28;20028;-82
2024/03/13 03:34:24;;;;;;;0.20;0.20;;;;;;;7.00;100.00;92778.03;1857674;28;20056;-82
2024/03/13 03:35:25;;;;;;;0.20;0.20;;;;;;;6.81;100.00;92787.41;1881268;27;20998;-83
2024/03/13 03:36:26;;;;;;;0.20;0.20;;;;;;;6.84;100.00;92779.78;1910979;27;20104;-83
2024/03/13 03:37:27;;;;;;;0.55;0.20;;;;;;;6.84;100.00;92785.09;1903270;28;20083;-82
2024/03/13 03:38:28;;;;;;;0.50;0.20;;;;;;;6.69;100.00;92789.84;1894918;28;20109;-80
2024/03/13 03:39:34;;;;;;;0.20;0.20;;;;;;;6.63;100.00;92796.72;1866114;28;20028;-82
2024/03/13 03:40:35;;;;;;;0.28;0.28;;;;;;;6.60;100.00;92789.56;1872270;28;23963;-81
2024/03/13 03:41:37;;;;;;;0.20;0.20;;;;;;;6.54;100.00;92783.91;1859056;28;20050;-79
2024/03/13 03:42:38;;;;;;;0.22;0.20;;;;;;;6.79;100.00;92787.03;1902554;28;20067;-81
2024/03/13 03:43:39;;;;;;;0.28;0.20;;;;;;;6.78;100.00;92784.78;2080748;28;20405;-83
2024/03/13 03:44:39;;;;;;;0.10;0.10;;;;;;;6.81;100.00;92787.41;2071726;28;20037;-82
2024/03/13 03:45:40;;;;;;;0.10;0.10;;;;;;;6.79;100.00;92791.59;2080082;27;20020;-83
2024/03/13 03:46:41;;;;;;;0.20;0.20;;;;;;;6.70;100.00;92791.31;2033508;27;20118;-82
2024/03/13 03:47:42;;;;;;;0.20;0.20;;;;;;;6.67;100.00;92790.25;2028848;28;20075;-82
2024/03/13 03:48:43;;;;;;;0.20;0.20;;;;;;;6.52;100.00;92788.88;2032521;28;20031;-83
2024/03/13 03:49:46;;;;;;;0.20;0.20;;;;;;;6.71;100.00;92788.25;2055585;27;20046;-83
2024/03/13 03:50:47;;;;;;;0.10;0.10;;;;;;;6.81;100.00;92795.38;2062335;28;20117;-83
2024/03/13 03:51:49;;;;;;;0.20;0.20;;;;;;;6.81;100.00;92791.97;2057468;28;20171;-82
2024/03/13 03:52:50;;;;;;;0.10;0.10;;;;;;;6.73;100.00;92793.94;2070068;28;21820;-83
2024/03/13 03:53:50;;;;;;;0.20;0.20;;;;;;;6.65;100.00;92797.84;2073357;28;20036;-82
2024/03/13 03:54:51;;;;;;;0.28;0.28;;;;;;;6.78;100.00;92790.09;2090451;27;20033;-82
2024/03/13 03:55:53;;;;;;;0.25;0.20;;;;;;;6.78;100.00;92796.16;2085414;28;20030;-83
2024/03/13 03:56:54;;;;;;;0.10;0.10;;;;;;;6.82;100.00;92796.13;2107998;27;20776;-83
2024/03/13 03:57:55;;;;;;;0.20;0.20;;;;;;;6.95;100.00;92793.69;2115374;27;20019;-82
2024/03/13 03:58:56;;;;;;;0.10;0.10;;;;;;;6.87;100.00;92785.03;2098601;28;20381;-82
2024/03/13 03:59:57;;;;;;;0.20;0.20;;;;;;;6.86;100.00;92790.75;2098302;28;20028;-82
2024/03/13 04:00:58;;;;;;;0.10;0.10;;;;;;;6.91;100.00;92795.63;2098412;28;20040;-83
2024/03/13 04:01:59;;;;;;;0.60;0.17;;;;;;;6.98;100.00;92800.81;2097071;28;20012;-83
2024/03/13 04:03:01;;;;;;;0.40;0.40;;;;;;;6.92;100.00;92799.78;2098216;28;20153;-83
2024/03/13 04:04:03;;;;;;;0.80;0.20;;;;;;;6.97;100.00;92788.69;2107087;28;20406;-83
2024/03/13 04:05:08;;;;;;;0.10;0.10;;;;;;;7.13;100.00;92791.53;2114896;28;20035;-84
2024/03/13 04:06:09;;;;;;;0.40;0.20;;;;;;;7.15;100.00;92791.09;2107113;28;20074;-83
2024/03/13 04:07:11;;;;;;;0.10;0.10;;;;;;;7.13;100.00;92796.09;2100479;28;20178;-84
2024/03/13 04:08:14;;;;;;;0.25;0.10;;;;;;;7.07;100.00;92790.47;2106519;28;20034;-83
2024/03/13 04:09:15;;;;;;;0.10;0.10;;;;;;;7.07;100.00;92790.47;2098466;28;20131;-83
2024/03/13 04:10:16;;;;;;;0.20;0.20;;;;;;;7.06;100.00;92786.28;2089951;28;20044;-84
2024/03/13 04:11:17;;;;;;;0.10;0.10;;;;;;;6.88;100.00;92791.84;2090074;28;20442;-83
2024/03/13 04:12:18;;;;;;;0.10;0.10;;;;;;;6.82;100.00;92791.56;2098196;28;20020;-82
2024/03/13 04:13:19;;;;;;;0.13;0.13;;;;;;;6.90;100.00;92792.22;2106680;28;20148;-84
2024/03/13 04:14:20;;;;;;;0.20;0.20;;;;;;;6.92;100.00;92789.91;2106721;28;20063;-83
2024/03/13 04:15:23;;;;;;;0.10;0.10;;;;;;;7.03;100.00;92798.50;2098377;28;20786;-82
2024/03/13 04:16:24;;;;;;;0.10;0.10;;;;;;;7.08;100.00;92794.63;2098058;28;20132;-82
2024/03/13 04:17:26;;;;;;;0.10;0.10;;;;;;;7.10;100.00;92794.97;2101395;28;20159;-83
2024/03/13 04:18:27;;;;;;;0.20;0.20;;;;;;;6.93;100.00;92795.97;2098278;28;20025;-83
2024/03/13 04:19:28;;;;;;;0.10;0.10;;;;;;;7.03;100.00;92795.84;2102002;28;20047;-83
2024/03/13 04:20:29;;;;;;;0.10;0.10;;;;;;;7.02;100.00;92804.19;2098190;28;20035;-82
2024/03/13 04:21:32;;;;;;;0.20;0.20;;;;;;;7.05;100.00;92806.81;2091225;28;20021;-84
2024/03/13 04:22:33;;;;;;;0.15;0.15;;;;;;;7.07;100.00;92803.75;2103488;27;20374;-82
2024/03/13 04:23:34;;;;;;;0.10;0.10;;;;;;;7.01;100.00;92800.78;2106153;28;20039;-83
2024/03/13 04:24:35;;;;;;;0.20;0.20;;;;;;;7.00;100.00;92801.94;2095015;28;20119;-83
2024/03/13 04:25:37;;;;;;;0.20;0.20;;;;;;;6.98;100.00;92806.13;2100551;28;20117;-83
2024/03/13 04:26:41;;;;;;;0.20;0.20;;;;;;;6.93;100.00;92802.03;2099531;28;20032;-83
2024/03/13 04:27:42;;;;;;;0.20;0.20;;;;;;;7.06;100.00;92800.34;2092691;28;20025;-83
2024/03/13 04:28:43;;;;;;;0.17;0.17;;;;;;;7.08;100.00;92794.63;2089881;28;20028;-84
2024/03/13 04:29:44;;;;;;;0.10;0.10;;;;;;;7.05;100.00;92809.47;2089965;28;20029;-83
2024/03/13 04:30:46;;;;;;;0.20;0.20;;;;;;;7.01;100.00;92802.69;2089955;28;20032;-83
2024/03/13 04:31:47;;;;;;;0.20;0.20;;;;;;;7.10;100.00;92797.63;2102110;28;20110;-82
2024/03/13 04:32:49;;;;;;;0.10;0.10;;;;;;;7.33;100.00;92799.56;2098048;28;20028;-83
2024/03/13 04:33:50;;;;;;;0.20;0.20;;;;;;;7.43;100.00;92805.91;2098364;28;20024;-84
2024/03/13 04:34:50;;;;;;;0.10;0.10;;;;;;;7.38;100.00;92801.06;2106468;28;20024;-84
2024/03/13 04:35:52;;;;;;;0.20;0.20;;;;;;;7.44;100.00;92802.09;2106689;28;20027;-83
2024/03/13 04:36:54;;;;;;;0.32;0.17;;;;;;;7.37;100.00;92794.22;2106764;28;20016;-83
2024/03/13 04:37:56;;;;;;;0.10;0.10;;;;;;;7.44;100.00;92789.56;2106341;28;20501;-83
2024/03/13 04:38:57;;;;;;;0.10;0.10;;;;;;;7.39;100.00;92798.00;2106809;28;20027;-82
2024/03/13 04:39:59;;;;;;;0.10;0.10;;;;;;;7.36;100.00;92800.69;2099139;28;20481;-82
2024/03/13 04:41:00;;;;;;;0.10;0.10;;;;;;;7.44;100.00;92799.44;2114760;28;20101;-83
2024/03/13 04:42:05;;;;;;;0.10;0.10;;;;;;;7.38;100.00;92804.47;2115349;27;20046;-83
2024/03/13 04:43:07;;;;;;;0.20;0.20;;;;;;;7.38;100.00;92801.06;2114700;28;20423;-83
2024/03/13 04:44:09;;;;;;;0.10;0.10;;;;;;;7.40;100.00;92802.16;2106517;28;20460;-83
2024/03/13 04:45:10;;;;;;;0.10;0.10;;;;;;;7.37;100.00;92804.84;2106684;27;20062;-82
2024/03/13 04:46:15;;;;;;;0.10;0.10;;;;;;;7.36;100.00;92814.00;2108997;28;20020;-83
2024/03/13 04:47:18;;;;;;;0.20;0.20;;;;;;;7.28;100.00;92808.00;2104269;28;20035;-83
2024/03/13 04:48:19;;;;;;;0.10;0.10;;;;;;;7.29;100.00;92809.53;2106845;27;20032;-83
2024/03/13 04:49:20;;;;;;;0.17;0.17;;;;;;;7.34;100.00;92813.66;2103615;28;20134;-84
2024/03/13 04:50:21;;;;;;;0.15;0.15;;;;;;;7.42;100.00;92813.16;2110732;28;20029;-82
2024/03/13 04:51:22;;;;;;;0.10;0.10;;;;;;;7.44;100.00;92813.47;2114683;28;20061;-83
2024/03/13 04:52:23;;;;;;;1.10;0.20;;;;;;;7.48;100.00;92814.19;2106321;28;20028;-82
2024/03/13 04:53:24;;;;;;;0.10;0.10;;;;;;;7.40;100.00;92817.34;2102252;28;20536;-83
2024/03/13 04:54:25;;;;;;;0.32;0.10;;;;;;;7.39;100.00;92815.84;2101987;28;20522;-83
2024/03/13 04:55:29;;;;;;;0.20;0.20;;;;;;;7.44;100.00;92813.47;2097778;28;20109;-83
2024/03/13 04:56:30;;;;;;;0.10;0.10;;;;;;;7.26;100.00;92815.66;2112567;27;20491;-83
2024/03/13 04:57:32;;;;;;;0.20;0.20;;;;;;;7.36;100.00;92821.97;2112251;28;20039;-83
2024/03/13 04:58:34;;;;;;;0.10;0.10;;;;;;;7.33;100.00;92815.53;2106238;28;20384;-83
2024/03/13 04:59:36;;;;;;;0.20;0.20;;;;;;;7.38;100.00;92820.41;2106396;28;20023;-83
2024/03/13 05:00:37;;;;;;;0.20;0.20;;;;;;;7.36;100.00;92814.75;2122983;27;20054;-83
2024/03/13 05:01:38;;;;;;;0.10;0.10;;;;;;;7.28;100.00;92822.06;2114320;28;20027;-83
2024/03/13 05:02:39;;;;;;;0.10;0.10;;;;;;;7.22;100.00;92821.00;2106219;28;20065;-83
2024/03/13 05:03:40;;;;;;;0.13;0.13;;;;;;;7.42;100.00;92823.00;2114622;28;20369;-82
2024/03/13 05:04:43;;;;;;;0.10;0.10;;;;;;;7.36;100.00;92821.97;2123072;27;20076;-82
2024/03/13 05:05:45;;;;;;;0.10;0.10;;;;;;;7.48;100.00;92821.41;2131847;27;20618;-84
2024/03/13 05:06:47;;;;;;;0.10;0.10;;;;;;;7.44;100.00;92826.03;2107422;28;20039;-83
2024/03/13 05:07:48;;;;;;;0.10;0.10;;;;;;;7.52;100.00;92814.88;2114729;27;20136;-81
2024/03/13 05:08:49;;;;;;;0.10;0.10;;;;;;;7.70;100.00;92825.25;2123092;27;20399;-83